sensor_id;sensor_type;location;lat;lon;timestamp;pressure;altitude;pressure_sealevel;temperature
12854;BMP180;6495;51.808;7.478;2022-09-27T00:01:08;98941.00;;;12.60
12854;BMP180;6495;51.808;7.478;2022-09-27T00:03:37;98943.00;;;12.60
12854;BMP180;6495;51.808;7.478;2022-09-27T00:06:09;98951.00;;;12.60
12854;BMP180;6495;51.808;7.478;2022-09-27T00:08:39;98950.00;;;12.60
12854;BMP180;6495;51.808;7.478;2022-09-27T00:11:25;98945.00;;;12.60
12854;BMP180;6495;51.808;7.478;2022-09-27T00:13:56;98952.00;;;12.50
12854;BMP180;6495;51.808;7.478;2022-09-27T00:16:27;98953.00;;;12.50
12854;BMP180;6495;51.808;7.478;2022-09-27T00:18:58;98955.00;;;12.40
12854;BMP180;6495;51.808;7.478;2022-09-27T00:21:28;98950.00;;;12.40
12854;BMP180;6495;51.808;7.478;2022-09-27T00:23:57;98959.00;;;12.40
12854;BMP180;6495;51.808;7.478;2022-09-27T00:26:27;98960.00;;;12.50
12854;BMP180;6495;51.808;7.478;2022-09-27T00:28:56;98966.00;;;12.50
12854;BMP180;6495;51.808;7.478;2022-09-27T00:31:27;98966.00;;;12.50
12854;BMP180;6495;51.808;7.478;2022-09-27T00:33:58;98968.00;;;12.40
12854;BMP180;6495;51.808;7.478;2022-09-27T00:36:28;98969.00;;;12.50
12854;BMP180;6495;51.808;7.478;2022-09-27T00:38:58;98968.00;;;12.50
12854;BMP180;6495;51.808;7.478;2022-09-27T00:41:32;98966.00;;;12.50
12854;BMP180;6495;51.808;7.478;2022-09-27T00:44:03;98974.00;;;12.50
12854;BMP180;6495;51.808;7.478;2022-09-27T00:46:38;98976.00;;;12.40
12854;BMP180;6495;51.808;7.478;2022-09-27T00:49:16;98971.00;;;12.40
12854;BMP180;6495;51.808;7.478;2022-09-27T00:51:56;98976.00;;;12.40
12854;BMP180;6495;51.808;7.478;2022-09-27T00:54:28;98974.00;;;12.40
12854;BMP180;6495;51.808;7.478;2022-09-27T00:57:01;98974.00;;;12.40
12854;BMP180;6495;51.808;7.478;2022-09-27T00:59:34;98972.00;;;12.40
12854;BMP180;6495;51.808;7.478;2022-09-27T01:02:06;98970.00;;;12.30
12854;BMP180;6495;51.808;7.478;2022-09-27T01:04:37;98973.00;;;12.40
12854;BMP180;6495;51.808;7.478;2022-09-27T01:07:06;98986.00;;;12.30
12854;BMP180;6495;51.808;7.478;2022-09-27T01:09:34;98972.00;;;12.30
12854;BMP180;6495;51.808;7.478;2022-09-27T01:12:14;98978.00;;;12.30
12854;BMP180;6495;51.808;7.478;2022-09-27T01:15:02;98988.00;;;12.40
12854;BMP180;6495;51.808;7.478;2022-09-27T01:17:48;98988.00;;;12.30
12854;BMP180;6495;51.808;7.478;2022-09-27T01:20:44;98998.00;;;12.30
12854;BMP180;6495;51.808;7.478;2022-09-27T01:24:05;99000.00;;;12.30
12854;BMP180;6495;51.808;7.478;2022-09-27T01:27:20;98998.00;;;12.30
12854;BMP180;6495;51.808;7.478;2022-09-27T01:30:25;98996.00;;;12.30
12854;BMP180;6495;51.808;7.478;2022-09-27T01:33:13;99000.00;;;12.30
12854;BMP180;6495;51.808;7.478;2022-09-27T01:38:50;98997.00;;;12.30
12854;BMP180;6495;51.808;7.478;2022-09-27T01:41:29;98993.00;;;12.30
12854;BMP180;6495;51.808;7.478;2022-09-27T01:44:03;98994.00;;;12.30
12854;BMP180;6495;51.808;7.478;2022-09-27T01:46:40;99000.00;;;12.30
12854;BMP180;6495;51.808;7.478;2022-09-27T01:49:17;99000.00;;;12.30
12854;BMP180;6495;51.808;7.478;2022-09-27T01:51:57;98999.00;;;12.20
12854;BMP180;6495;51.808;7.478;2022-09-27T01:54:36;99000.00;;;12.20
12854;BMP180;6495;51.808;7.478;2022-09-27T01:57:06;99002.00;;;12.20
12854;BMP180;6495;51.808;7.478;2022-09-27T01:59:43;99002.00;;;12.20
12854;BMP180;6495;51.808;7.478;2022-09-27T02:02:17;99001.00;;;12.20
12854;BMP180;6495;51.808;7.478;2022-09-27T02:04:49;98996.00;;;12.20
12854;BMP180;6495;51.808;7.478;2022-09-27T02:07:22;99009.00;;;12.20
12854;BMP180;6495;51.808;7.478;2022-09-27T02:09:57;98993.00;;;12.20
12854;BMP180;6495;51.808;7.478;2022-09-27T02:12:31;98990.00;;;12.10
12854;BMP180;6495;51.808;7.478;2022-09-27T02:15:08;99001.00;;;12.10
12854;BMP180;6495;51.808;7.478;2022-09-27T02:17:43;99010.00;;;12.10
12854;BMP180;6495;51.808;7.478;2022-09-27T02:20:20;99009.00;;;12.10
12854;BMP180;6495;51.808;7.478;2022-09-27T02:23:02;99003.00;;;12.10
12854;BMP180;6495;51.808;7.478;2022-09-27T02:25:41;99009.00;;;12.00
12854;BMP180;6495;51.808;7.478;2022-09-27T02:28:23;99007.00;;;12.00
12854;BMP180;6495;51.808;7.478;2022-09-27T02:30:53;98998.00;;;12.00
12854;BMP180;6495;51.808;7.478;2022-09-27T02:33:29;99003.00;;;12.00
12854;BMP180;6495;51.808;7.478;2022-09-27T02:35:58;99008.00;;;12.00
12854;BMP180;6495;51.808;7.478;2022-09-27T02:38:26;99005.00;;;12.00
12854;BMP180;6495;51.808;7.478;2022-09-27T02:40:55;99010.00;;;12.00
12854;BMP180;6495;51.808;7.478;2022-09-27T02:43:28;99004.00;;;12.00
12854;BMP180;6495;51.808;7.478;2022-09-27T02:46:19;99002.00;;;12.00
12854;BMP180;6495;51.808;7.478;2022-09-27T02:49:03;99006.00;;;12.00
12854;BMP180;6495;51.808;7.478;2022-09-27T02:51:50;99012.00;;;12.00
12854;BMP180;6495;51.808;7.478;2022-09-27T02:54:34;99012.00;;;12.00
12854;BMP180;6495;51.808;7.478;2022-09-27T02:57:24;99010.00;;;12.00
12854;BMP180;6495;51.808;7.478;2022-09-27T03:00:02;99007.00;;;12.00
12854;BMP180;6495;51.808;7.478;2022-09-27T03:02:42;99002.00;;;12.00
12854;BMP180;6495;51.808;7.478;2022-09-27T03:05:19;99006.00;;;11.90
12854;BMP180;6495;51.808;7.478;2022-09-27T03:07:48;99005.00;;;12.00
12854;BMP180;6495;51.808;7.478;2022-09-27T03:10:19;99016.00;;;11.90
12854;BMP180;6495;51.808;7.478;2022-09-27T03:12:48;99013.00;;;11.90
12854;BMP180;6495;51.808;7.478;2022-09-27T03:15:17;99021.00;;;11.90
12854;BMP180;6495;51.808;7.478;2022-09-27T03:17:45;99023.00;;;11.90
12854;BMP180;6495;51.808;7.478;2022-09-27T03:20:15;99015.00;;;11.90
12854;BMP180;6495;51.808;7.478;2022-09-27T03:22:43;99016.00;;;11.90
12854;BMP180;6495;51.808;7.478;2022-09-27T03:25:12;99023.00;;;11.90
12854;BMP180;6495;51.808;7.478;2022-09-27T03:27:40;99016.00;;;11.80
12854;BMP180;6495;51.808;7.478;2022-09-27T03:30:12;99026.00;;;11.80
12854;BMP180;6495;51.808;7.478;2022-09-27T03:32:41;99025.00;;;11.90
12854;BMP180;6495;51.808;7.478;2022-09-27T03:35:10;99026.00;;;11.90
12854;BMP180;6495;51.808;7.478;2022-09-27T03:37:39;99027.00;;;11.90
12854;BMP180;6495;51.808;7.478;2022-09-27T03:40:09;99032.00;;;11.90
12854;BMP180;6495;51.808;7.478;2022-09-27T03:42:37;99047.00;;;11.90
12854;BMP180;6495;51.808;7.478;2022-09-27T03:45:07;99041.00;;;11.90
12854;BMP180;6495;51.808;7.478;2022-09-27T03:47:39;99028.00;;;11.90
12854;BMP180;6495;51.808;7.478;2022-09-27T03:50:11;99039.00;;;11.90
12854;BMP180;6495;51.808;7.478;2022-09-27T03:52:42;99030.00;;;11.90
12854;BMP180;6495;51.808;7.478;2022-09-27T03:55:11;99027.00;;;11.80
12854;BMP180;6495;51.808;7.478;2022-09-27T03:57:44;99027.00;;;11.80
12854;BMP180;6495;51.808;7.478;2022-09-27T04:00:13;99034.00;;;11.80
12854;BMP180;6495;51.808;7.478;2022-09-27T04:02:42;99038.00;;;11.80
12854;BMP180;6495;51.808;7.478;2022-09-27T04:05:10;99042.00;;;11.80
12854;BMP180;6495;51.808;7.478;2022-09-27T04:07:45;99040.00;;;11.80
12854;BMP180;6495;51.808;7.478;2022-09-27T04:10:14;99043.00;;;11.80
12854;BMP180;6495;51.808;7.478;2022-09-27T04:12:42;99052.00;;;11.80
12854;BMP180;6495;51.808;7.478;2022-09-27T04:15:11;99054.00;;;11.80
12854;BMP180;6495;51.808;7.478;2022-09-27T04:17:41;99053.00;;;11.80
12854;BMP180;6495;51.808;7.478;2022-09-27T04:20:09;99062.00;;;11.80
12854;BMP180;6495;51.808;7.478;2022-09-27T04:22:40;99058.00;;;11.80
12854;BMP180;6495;51.808;7.478;2022-09-27T04:25:10;99057.00;;;11.70
12854;BMP180;6495;51.808;7.478;2022-09-27T04:27:43;99061.00;;;11.70
12854;BMP180;6495;51.808;7.478;2022-09-27T04:30:13;99068.00;;;11.70
12854;BMP180;6495;51.808;7.478;2022-09-27T04:32:42;99068.00;;;11.70
12854;BMP180;6495;51.808;7.478;2022-09-27T04:35:12;99064.00;;;11.60
12854;BMP180;6495;51.808;7.478;2022-09-27T04:37:59;99060.00;;;11.60
12854;BMP180;6495;51.808;7.478;2022-09-27T04:40:28;99074.00;;;11.60
12854;BMP180;6495;51.808;7.478;2022-09-27T04:42:56;99079.00;;;11.60
12854;BMP180;6495;51.808;7.478;2022-09-27T04:45:24;99075.00;;;11.60
12854;BMP180;6495;51.808;7.478;2022-09-27T04:47:52;99074.00;;;11.50
12854;BMP180;6495;51.808;7.478;2022-09-27T04:50:26;99074.00;;;11.50
12854;BMP180;6495;51.808;7.478;2022-09-27T04:53:14;99083.00;;;11.50
12854;BMP180;6495;51.808;7.478;2022-09-27T04:55:45;99085.00;;;11.50
12854;BMP180;6495;51.808;7.478;2022-09-27T04:58:19;99084.00;;;11.50
12854;BMP180;6495;51.808;7.478;2022-09-27T05:00:49;99082.00;;;11.50
12854;BMP180;6495;51.808;7.478;2022-09-27T05:03:18;99086.00;;;11.40
12854;BMP180;6495;51.808;7.478;2022-09-27T05:05:46;99087.00;;;11.40
12854;BMP180;6495;51.808;7.478;2022-09-27T05:08:15;99085.00;;;11.40
12854;BMP180;6495;51.808;7.478;2022-09-27T05:10:43;99083.00;;;11.40
12854;BMP180;6495;51.808;7.478;2022-09-27T05:13:12;99084.00;;;11.40
12854;BMP180;6495;51.808;7.478;2022-09-27T05:15:40;99092.00;;;11.40
12854;BMP180;6495;51.808;7.478;2022-09-27T05:18:08;99095.00;;;11.40
12854;BMP180;6495;51.808;7.478;2022-09-27T05:20:37;99097.00;;;11.50
12854;BMP180;6495;51.808;7.478;2022-09-27T05:23:05;99099.00;;;11.50
12854;BMP180;6495;51.808;7.478;2022-09-27T05:25:35;99106.00;;;11.50
12854;BMP180;6495;51.808;7.478;2022-09-27T05:28:03;99112.00;;;11.50
12854;BMP180;6495;51.808;7.478;2022-09-27T05:30:31;99102.00;;;11.50
12854;BMP180;6495;51.808;7.478;2022-09-27T05:33:01;99109.00;;;11.40
12854;BMP180;6495;51.808;7.478;2022-09-27T05:35:29;99101.00;;;11.40
12854;BMP180;6495;51.808;7.478;2022-09-27T05:37:58;99102.00;;;11.40
12854;BMP180;6495;51.808;7.478;2022-09-27T05:40:27;99111.00;;;11.40
12854;BMP180;6495;51.808;7.478;2022-09-27T05:43:09;99104.00;;;11.40
12854;BMP180;6495;51.808;7.478;2022-09-27T05:45:37;99101.00;;;11.40
12854;BMP180;6495;51.808;7.478;2022-09-27T05:48:05;99108.00;;;11.40
12854;BMP180;6495;51.808;7.478;2022-09-27T05:50:33;99117.00;;;11.40
12854;BMP180;6495;51.808;7.478;2022-09-27T05:53:01;99115.00;;;11.40
12854;BMP180;6495;51.808;7.478;2022-09-27T05:55:29;99118.00;;;11.40
12854;BMP180;6495;51.808;7.478;2022-09-27T05:57:59;99115.00;;;11.30
12854;BMP180;6495;51.808;7.478;2022-09-27T06:00:29;99114.00;;;11.30
12854;BMP180;6495;51.808;7.478;2022-09-27T06:02:59;99116.00;;;11.30
12854;BMP180;6495;51.808;7.478;2022-09-27T06:05:30;99122.00;;;11.30
12854;BMP180;6495;51.808;7.478;2022-09-27T06:08:04;99122.00;;;11.30
12854;BMP180;6495;51.808;7.478;2022-09-27T06:10:33;99117.00;;;11.30
12854;BMP180;6495;51.808;7.478;2022-09-27T06:13:03;99125.00;;;11.30
12854;BMP180;6495;51.808;7.478;2022-09-27T06:15:35;99121.00;;;11.30
12854;BMP180;6495;51.808;7.478;2022-09-27T06:18:07;99125.00;;;11.30
12854;BMP180;6495;51.808;7.478;2022-09-27T06:20:38;99120.00;;;11.30
12854;BMP180;6495;51.808;7.478;2022-09-27T06:23:09;99124.00;;;11.30
12854;BMP180;6495;51.808;7.478;2022-09-27T06:25:39;99116.00;;;11.30
12854;BMP180;6495;51.808;7.478;2022-09-27T06:28:07;99120.00;;;11.30
12854;BMP180;6495;51.808;7.478;2022-09-27T06:30:40;99131.00;;;11.30
12854;BMP180;6495;51.808;7.478;2022-09-27T06:33:11;99134.00;;;11.30
12854;BMP180;6495;51.808;7.478;2022-09-27T06:35:41;99135.00;;;11.20
12854;BMP180;6495;51.808;7.478;2022-09-27T06:38:13;99139.00;;;11.20
12854;BMP180;6495;51.808;7.478;2022-09-27T06:40:42;99142.00;;;11.30
12854;BMP180;6495;51.808;7.478;2022-09-27T06:43:13;99147.00;;;11.30
12854;BMP180;6495;51.808;7.478;2022-09-27T06:45:43;99142.00;;;11.30
12854;BMP180;6495;51.808;7.478;2022-09-27T06:48:13;99155.00;;;11.30
12854;BMP180;6495;51.808;7.478;2022-09-27T06:50:45;99154.00;;;11.30
12854;BMP180;6495;51.808;7.478;2022-09-27T06:53:15;99156.00;;;11.30
12854;BMP180;6495;51.808;7.478;2022-09-27T06:55:43;99163.00;;;11.30
12854;BMP180;6495;51.808;7.478;2022-09-27T06:58:11;99163.00;;;11.30
12854;BMP180;6495;51.808;7.478;2022-09-27T07:00:58;99170.00;;;11.30
12854;BMP180;6495;51.808;7.478;2022-09-27T07:03:27;99170.00;;;11.30
12854;BMP180;6495;51.808;7.478;2022-09-27T07:06:04;99174.00;;;11.30
12854;BMP180;6495;51.808;7.478;2022-09-27T07:08:33;99177.00;;;11.30
12854;BMP180;6495;51.808;7.478;2022-09-27T07:11:03;99171.00;;;11.30
12854;BMP180;6495;51.808;7.478;2022-09-27T07:13:32;99180.00;;;11.30
12854;BMP180;6495;51.808;7.478;2022-09-27T07:16:04;99185.00;;;11.30
12854;BMP180;6495;51.808;7.478;2022-09-27T07:18:32;99202.00;;;11.30
12854;BMP180;6495;51.808;7.478;2022-09-27T07:21:00;99180.00;;;11.30
12854;BMP180;6495;51.808;7.478;2022-09-27T07:23:28;99190.00;;;11.30
12854;BMP180;6495;51.808;7.478;2022-09-27T07:26:00;99195.00;;;11.30
12854;BMP180;6495;51.808;7.478;2022-09-27T07:28:30;99193.00;;;11.30
12854;BMP180;6495;51.808;7.478;2022-09-27T07:30:58;99195.00;;;11.30
12854;BMP180;6495;51.808;7.478;2022-09-27T07:33:30;99200.00;;;11.40
12854;BMP180;6495;51.808;7.478;2022-09-27T07:35:58;99200.00;;;11.40
12854;BMP180;6495;51.808;7.478;2022-09-27T07:38:26;99197.00;;;11.40
12854;BMP180;6495;51.808;7.478;2022-09-27T07:40:54;99208.00;;;11.40
12854;BMP180;6495;51.808;7.478;2022-09-27T07:43:22;99204.00;;;11.40
12854;BMP180;6495;51.808;7.478;2022-09-27T07:45:50;99201.00;;;11.40
12854;BMP180;6495;51.808;7.478;2022-09-27T07:48:18;99205.00;;;11.40
12854;BMP180;6495;51.808;7.478;2022-09-27T07:50:47;99212.00;;;11.40
12854;BMP180;6495;51.808;7.478;2022-09-27T07:53:15;99219.00;;;11.50
12854;BMP180;6495;51.808;7.478;2022-09-27T07:55:43;99225.00;;;11.50
12854;BMP180;6495;51.808;7.478;2022-09-27T07:58:11;99231.00;;;11.60
12854;BMP180;6495;51.808;7.478;2022-09-27T08:00:39;99235.00;;;11.70
12854;BMP180;6495;51.808;7.478;2022-09-27T08:03:12;99237.00;;;11.80
12854;BMP180;6495;51.808;7.478;2022-09-27T08:05:43;99239.00;;;11.80
12854;BMP180;6495;51.808;7.478;2022-09-27T08:08:13;99234.00;;;11.80
12854;BMP180;6495;51.808;7.478;2022-09-27T08:10:41;99235.00;;;11.80
12854;BMP180;6495;51.808;7.478;2022-09-27T08:13:14;99240.00;;;11.90
12854;BMP180;6495;51.808;7.478;2022-09-27T08:15:43;99234.00;;;11.90
12854;BMP180;6495;51.808;7.478;2022-09-27T08:18:11;99241.00;;;11.90
12854;BMP180;6495;51.808;7.478;2022-09-27T08:20:39;99238.00;;;12.00
12854;BMP180;6495;51.808;7.478;2022-09-27T08:23:07;99237.00;;;12.00
12854;BMP180;6495;51.808;7.478;2022-09-27T08:25:36;99246.00;;;12.10
12854;BMP180;6495;51.808;7.478;2022-09-27T08:28:05;99254.00;;;12.10
12854;BMP180;6495;51.808;7.478;2022-09-27T08:30:34;99251.00;;;12.20
12854;BMP180;6495;51.808;7.478;2022-09-27T08:33:04;99258.00;;;12.30
12854;BMP180;6495;51.808;7.478;2022-09-27T08:35:32;99262.00;;;12.30
12854;BMP180;6495;51.808;7.478;2022-09-27T08:38:01;99260.00;;;12.40
12854;BMP180;6495;51.808;7.478;2022-09-27T08:40:48;99261.00;;;12.50
12854;BMP180;6495;51.808;7.478;2022-09-27T08:43:30;99261.00;;;12.50
12854;BMP180;6495;51.808;7.478;2022-09-27T08:46:19;99255.00;;;12.60
12854;BMP180;6495;51.808;7.478;2022-09-27T08:48:54;99254.00;;;12.50
12854;BMP180;6495;51.808;7.478;2022-09-27T08:51:29;99261.00;;;12.50
12854;BMP180;6495;51.808;7.478;2022-09-27T08:54:04;99251.00;;;12.50
12854;BMP180;6495;51.808;7.478;2022-09-27T08:56:36;99261.00;;;12.50
12854;BMP180;6495;51.808;7.478;2022-09-27T08:59:12;99268.00;;;12.60
12854;BMP180;6495;51.808;7.478;2022-09-27T09:01:42;99262.00;;;12.60
12854;BMP180;6495;51.808;7.478;2022-09-27T09:04:11;99268.00;;;12.60
12854;BMP180;6495;51.808;7.478;2022-09-27T09:06:48;99266.00;;;12.60
12854;BMP180;6495;51.808;7.478;2022-09-27T09:09:32;99265.00;;;12.70
12854;BMP180;6495;51.808;7.478;2022-09-27T09:12:21;99274.00;;;12.70
12854;BMP180;6495;51.808;7.478;2022-09-27T09:15:33;99279.00;;;12.70
12854;BMP180;6495;51.808;7.478;2022-09-27T09:18:37;99268.00;;;12.70
12854;BMP180;6495;51.808;7.478;2022-09-27T09:21:18;99266.00;;;12.70
12854;BMP180;6495;51.808;7.478;2022-09-27T09:24:21;99271.00;;;12.70
12854;BMP180;6495;51.808;7.478;2022-09-27T09:27:01;99270.00;;;12.70
12854;BMP180;6495;51.808;7.478;2022-09-27T09:29:57;99273.00;;;12.70
12854;BMP180;6495;51.808;7.478;2022-09-27T09:32:40;99259.00;;;12.70
12854;BMP180;6495;51.808;7.478;2022-09-27T09:35:16;99272.00;;;12.70
12854;BMP180;6495;51.808;7.478;2022-09-27T09:37:51;99262.00;;;12.70
12854;BMP180;6495;51.808;7.478;2022-09-27T09:40:26;99261.00;;;12.70
12854;BMP180;6495;51.808;7.478;2022-09-27T09:43:03;99270.00;;;12.70
12854;BMP180;6495;51.808;7.478;2022-09-27T09:45:38;99263.00;;;12.80
12854;BMP180;6495;51.808;7.478;2022-09-27T09:48:18;99271.00;;;12.80
12854;BMP180;6495;51.808;7.478;2022-09-27T09:50:50;99264.00;;;12.70
12854;BMP180;6495;51.808;7.478;2022-09-27T09:53:31;99251.00;;;12.70
12854;BMP180;6495;51.808;7.478;2022-09-27T09:56:04;99263.00;;;12.70
12854;BMP180;6495;51.808;7.478;2022-09-27T09:58:41;99270.00;;;12.70
12854;BMP180;6495;51.808;7.478;2022-09-27T10:01:18;99265.00;;;12.70
12854;BMP180;6495;51.808;7.478;2022-09-27T10:03:48;99267.00;;;12.60
12854;BMP180;6495;51.808;7.478;2022-09-27T10:06:17;99260.00;;;12.70
12854;BMP180;6495;51.808;7.478;2022-09-27T10:08:45;99252.00;;;12.70
12854;BMP180;6495;51.808;7.478;2022-09-27T10:11:22;99253.00;;;12.70
12854;BMP180;6495;51.808;7.478;2022-09-27T10:13:51;99252.00;;;12.70
12854;BMP180;6495;51.808;7.478;2022-09-27T10:16:25;99243.00;;;12.60
12854;BMP180;6495;51.808;7.478;2022-09-27T10:18:59;99245.00;;;12.60
12854;BMP180;6495;51.808;7.478;2022-09-27T10:21:29;99247.00;;;12.60
12854;BMP180;6495;51.808;7.478;2022-09-27T10:24:09;99242.00;;;12.60
12854;BMP180;6495;51.808;7.478;2022-09-27T10:26:46;99252.00;;;12.50
12854;BMP180;6495;51.808;7.478;2022-09-27T10:29:23;99251.00;;;12.50
12854;BMP180;6495;51.808;7.478;2022-09-27T10:31:52;99252.00;;;12.50
12854;BMP180;6495;51.808;7.478;2022-09-27T10:34:27;99260.00;;;12.60
12854;BMP180;6495;51.808;7.478;2022-09-27T10:37:13;99255.00;;;12.70
12854;BMP180;6495;51.808;7.478;2022-09-27T10:39:44;99257.00;;;12.70
12854;BMP180;6495;51.808;7.478;2022-09-27T10:42:21;99258.00;;;12.70
12854;BMP180;6495;51.808;7.478;2022-09-27T10:44:49;99255.00;;;12.70
12854;BMP180;6495;51.808;7.478;2022-09-27T10:47:22;99257.00;;;12.70
12854;BMP180;6495;51.808;7.478;2022-09-27T10:50:03;99260.00;;;12.70
12854;BMP180;6495;51.808;7.478;2022-09-27T10:52:33;99259.00;;;12.70
12854;BMP180;6495;51.808;7.478;2022-09-27T10:55:14;99253.00;;;12.80
12854;BMP180;6495;51.808;7.478;2022-09-27T10:57:48;99249.00;;;12.80
12854;BMP180;6495;51.808;7.478;2022-09-27T11:00:22;99260.00;;;12.80
12854;BMP180;6495;51.808;7.478;2022-09-27T11:02:55;99254.00;;;12.90
12854;BMP180;6495;51.808;7.478;2022-09-27T11:05:35;99246.00;;;13.00
12854;BMP180;6495;51.808;7.478;2022-09-27T11:08:23;99245.00;;;13.10
12854;BMP180;6495;51.808;7.478;2022-09-27T11:11:02;99247.00;;;13.30
12854;BMP180;6495;51.808;7.478;2022-09-27T11:16:25;99252.00;;;13.40
12854;BMP180;6495;51.808;7.478;2022-09-27T11:19:15;99255.00;;;13.40
12854;BMP180;6495;51.808;7.478;2022-09-27T11:21:57;99249.00;;;13.40
12854;BMP180;6495;51.808;7.478;2022-09-27T11:24:42;99250.00;;;13.50
12854;BMP180;6495;51.808;7.478;2022-09-27T11:27:28;99258.00;;;13.50
12854;BMP180;6495;51.808;7.478;2022-09-27T11:30:10;99257.00;;;13.60
12854;BMP180;6495;51.808;7.478;2022-09-27T11:33:04;99254.00;;;13.70
12854;BMP180;6495;51.808;7.478;2022-09-27T11:35:52;99250.00;;;13.90
12854;BMP180;6495;51.808;7.478;2022-09-27T11:38:29;99248.00;;;13.90
12854;BMP180;6495;51.808;7.478;2022-09-27T11:41:33;99253.00;;;14.10
12854;BMP180;6495;51.808;7.478;2022-09-27T11:44:39;99251.00;;;14.20
12854;BMP180;6495;51.808;7.478;2022-09-27T11:47:20;99250.00;;;14.20
12854;BMP180;6495;51.808;7.478;2022-09-27T11:50:44;99244.00;;;14.10
12854;BMP180;6495;51.808;7.478;2022-09-27T11:53:42;99250.00;;;14.10
12854;BMP180;6495;51.808;7.478;2022-09-27T11:56:28;99256.00;;;14.00
12854;BMP180;6495;51.808;7.478;2022-09-27T11:59:15;99243.00;;;14.10
12854;BMP180;6495;51.808;7.478;2022-09-27T12:02:02;99242.00;;;14.00
12854;BMP180;6495;51.808;7.478;2022-09-27T12:05:17;99241.00;;;14.00
12854;BMP180;6495;51.808;7.478;2022-09-27T12:08:06;99253.00;;;13.90
12854;BMP180;6495;51.808;7.478;2022-09-27T12:10:38;99253.00;;;13.90
12854;BMP180;6495;51.808;7.478;2022-09-27T12:13:13;99243.00;;;13.90
12854;BMP180;6495;51.808;7.478;2022-09-27T12:15:46;99250.00;;;13.90
12854;BMP180;6495;51.808;7.478;2022-09-27T12:18:26;99250.00;;;13.80
12854;BMP180;6495;51.808;7.478;2022-09-27T12:20:58;99244.00;;;13.80
12854;BMP180;6495;51.808;7.478;2022-09-27T12:23:39;99250.00;;;13.80
12854;BMP180;6495;51.808;7.478;2022-09-27T12:26:16;99250.00;;;13.80
12854;BMP180;6495;51.808;7.478;2022-09-27T12:28:50;99256.00;;;13.80
12854;BMP180;6495;51.808;7.478;2022-09-27T12:31:31;99254.00;;;13.80
12854;BMP180;6495;51.808;7.478;2022-09-27T12:34:16;99251.00;;;13.80
12854;BMP180;6495;51.808;7.478;2022-09-27T12:36:52;99251.00;;;13.80
12854;BMP180;6495;51.808;7.478;2022-09-27T12:39:36;99256.00;;;13.80
12854;BMP180;6495;51.808;7.478;2022-09-27T12:42:18;99254.00;;;13.80
12854;BMP180;6495;51.808;7.478;2022-09-27T12:44:47;99244.00;;;13.80
12854;BMP180;6495;51.808;7.478;2022-09-27T12:47:48;99253.00;;;13.80
12854;BMP180;6495;51.808;7.478;2022-09-27T12:50:29;99261.00;;;13.70
12854;BMP180;6495;51.808;7.478;2022-09-27T12:53:15;99256.00;;;13.70
12854;BMP180;6495;51.808;7.478;2022-09-27T12:56:32;99258.00;;;13.60
12854;BMP180;6495;51.808;7.478;2022-09-27T12:59:27;99267.00;;;13.60
12854;BMP180;6495;51.808;7.478;2022-09-27T13:02:39;99263.00;;;13.60
12854;BMP180;6495;51.808;7.478;2022-09-27T13:09:34;99264.00;;;13.50
12854;BMP180;6495;51.808;7.478;2022-09-27T13:12:10;99265.00;;;13.50
12854;BMP180;6495;51.808;7.478;2022-09-27T13:14:53;99252.00;;;13.50
12854;BMP180;6495;51.808;7.478;2022-09-27T13:17:50;99254.00;;;13.60
12854;BMP180;6495;51.808;7.478;2022-09-27T13:20:48;99245.00;;;13.60
12854;BMP180;6495;51.808;7.478;2022-09-27T13:23:56;99241.00;;;13.60
12854;BMP180;6495;51.808;7.478;2022-09-27T13:26:49;99251.00;;;13.60
12854;BMP180;6495;51.808;7.478;2022-09-27T13:29:36;99252.00;;;13.60
12854;BMP180;6495;51.808;7.478;2022-09-27T13:32:21;99251.00;;;13.60
12854;BMP180;6495;51.808;7.478;2022-09-27T13:34:52;99255.00;;;13.70
12854;BMP180;6495;51.808;7.478;2022-09-27T13:37:52;99257.00;;;13.70
12854;BMP180;6495;51.808;7.478;2022-09-27T13:40:29;99260.00;;;13.70
12854;BMP180;6495;51.808;7.478;2022-09-27T13:43:42;99247.00;;;13.80
12854;BMP180;6495;51.808;7.478;2022-09-27T13:46:23;99246.00;;;13.80
12854;BMP180;6495;51.808;7.478;2022-09-27T13:48:57;99245.00;;;13.80
12854;BMP180;6495;51.808;7.478;2022-09-27T13:51:37;99250.00;;;13.80
12854;BMP180;6495;51.808;7.478;2022-09-27T13:54:37;99248.00;;;13.80
12854;BMP180;6495;51.808;7.478;2022-09-27T13:57:50;99252.00;;;13.80
12854;BMP180;6495;51.808;7.478;2022-09-27T14:00:23;99240.00;;;13.80
12854;BMP180;6495;51.808;7.478;2022-09-27T14:03:00;99243.00;;;13.80
12854;BMP180;6495;51.808;7.478;2022-09-27T14:05:34;99247.00;;;13.80
12854;BMP180;6495;51.808;7.478;2022-09-27T14:08:06;99241.00;;;13.80
12854;BMP180;6495;51.808;7.478;2022-09-27T14:10:42;99252.00;;;13.80
12854;BMP180;6495;51.808;7.478;2022-09-27T14:13:18;99256.00;;;13.80
12854;BMP180;6495;51.808;7.478;2022-09-27T14:15:47;99247.00;;;13.80
12854;BMP180;6495;51.808;7.478;2022-09-27T14:18:19;99251.00;;;13.80
12854;BMP180;6495;51.808;7.478;2022-09-27T14:20:50;99247.00;;;13.90
12854;BMP180;6495;51.808;7.478;2022-09-27T14:23:22;99246.00;;;13.90
12854;BMP180;6495;51.808;7.478;2022-09-27T14:25:53;99256.00;;;13.80
12854;BMP180;6495;51.808;7.478;2022-09-27T14:28:26;99248.00;;;13.80
12854;BMP180;6495;51.808;7.478;2022-09-27T14:31:17;99247.00;;;13.80
12854;BMP180;6495;51.808;7.478;2022-09-27T14:33:46;99248.00;;;13.70
12854;BMP180;6495;51.808;7.478;2022-09-27T14:36:25;99243.00;;;13.80
12854;BMP180;6495;51.808;7.478;2022-09-27T14:39:27;99248.00;;;13.80
12854;BMP180;6495;51.808;7.478;2022-09-27T14:41:58;99248.00;;;13.80
12854;BMP180;6495;51.808;7.478;2022-09-27T14:44:27;99251.00;;;13.80
12854;BMP180;6495;51.808;7.478;2022-09-27T14:47:19;99252.00;;;13.90
12854;BMP180;6495;51.808;7.478;2022-09-27T14:49:53;99251.00;;;13.90
12854;BMP180;6495;51.808;7.478;2022-09-27T14:52:56;99249.00;;;13.90
12854;BMP180;6495;51.808;7.478;2022-09-27T14:55:29;99246.00;;;13.90
12854;BMP180;6495;51.808;7.478;2022-09-27T14:58:02;99256.00;;;13.90
12854;BMP180;6495;51.808;7.478;2022-09-27T15:00:33;99262.00;;;13.90
12854;BMP180;6495;51.808;7.478;2022-09-27T15:03:06;99257.00;;;13.90
12854;BMP180;6495;51.808;7.478;2022-09-27T15:05:40;99269.00;;;13.90
12854;BMP180;6495;51.808;7.478;2022-09-27T15:08:11;99267.00;;;13.90
12854;BMP180;6495;51.808;7.478;2022-09-27T15:10:41;99266.00;;;13.90
12854;BMP180;6495;51.808;7.478;2022-09-27T15:13:14;99268.00;;;13.90
12854;BMP180;6495;51.808;7.478;2022-09-27T15:15:45;99273.00;;;13.90
12854;BMP180;6495;51.808;7.478;2022-09-27T15:18:39;99271.00;;;13.90
12854;BMP180;6495;51.808;7.478;2022-09-27T15:21:12;99272.00;;;13.90
12854;BMP180;6495;51.808;7.478;2022-09-27T15:23:43;99264.00;;;13.90